Time;durP1;ratioP1;P1;durP2;ratioP2;P2;SDS_P1;SDS_P2;PMS_P1;PMS_P2;Temp;Humidity;BMP_temperature;BMP_pressure;BME280_temperature;BME280_humidity;BME280_pressure;Samples;Min_cycle;Max_cycle;Signal;HPM_P1;HPM_P2
2022/02/03 05:01:22;;;;;;;4.60;4.07;;;4.90;99.90;;;;;;5749869;23;20748;-67
2022/02/03 05:04:22;;;;;;;6.80;5.03;;;4.90;99.90;;;;;;4950625;29;20201;-67
2022/02/03 05:07:21;;;;;;;6.72;3.60;;;4.90;99.90;;;;;;4942662;29;20325;-66
2022/02/03 05:10:08;;;;;;;9.32;4.15;;;4.90;99.90;;;;;;4946159;29;20212;-66
2022/02/03 05:13:06;;;;;;;7.38;4.60;;;4.90;99.90;;;;;;4925541;29;20359;-67
2022/02/03 05:16:10;;;;;;;7.88;4.93;;;4.90;99.90;;;;;;4927879;29;20222;-67
2022/02/03 05:19:20;;;;;;;8.68;4.45;;;4.90;99.90;;;;;;4913868;29;20301;-68
2022/02/03 05:35:10;;;;;;;8.30;4.03;;;4.90;99.90;;;;;;4933634;29;20875;-67
2022/02/03 05:44:13;;;;;;;6.43;4.40;;;4.90;99.90;;;;;;4931289;29;20216;-66
2022/02/03 06:09:38;;;;;;;6.72;5.80;;;5.10;99.90;;;;;;4928103;29;20215;-68
2022/02/03 06:12:35;;;;;;;10.25;5.13;;;5.10;99.90;;;;;;4922753;29;20257;-67
2022/02/03 06:15:07;;;;;;;7.18;5.45;;;5.10;99.90;;;;;;4928696;29;20264;-67
2022/02/03 06:20:39;;;;;;;9.20;5.72;;;5.20;99.90;;;;;;4913911;29;20221;-67
2022/02/03 06:21:11;;;;;;;9.95;5.20;;;5.20;99.90;;;;;;4917096;29;20833;-67
2022/02/03 06:29:10;;;;;;;6.88;4.95;;;5.20;99.90;;;;;;4932903;29;20228;-66
2022/02/03 06:31:37;;;;;;;7.32;4.80;;;5.20;99.90;;;;;;4929514;29;20230;-66
2022/02/03 06:34:05;;;;;;;6.07;5.53;;;5.20;99.90;;;;;;4913652;29;20211;-66
2022/02/03 06:36:32;;;;;;;5.05;4.50;;;5.20;99.90;;;;;;4923569;29;20254;-66
2022/02/03 06:39:00;;;;;;;5.70;5.10;;;5.30;99.90;;;;;;4915777;29;20206;-66
2022/02/03 06:41:27;;;;;;;6.30;5.53;;;5.30;99.90;;;;;;4921393;29;20222;-67
2022/02/03 06:43:53;;;;;;;6.85;4.53;;;5.30;99.90;;;;;;4925020;29;20210;-67
2022/02/03 06:46:21;;;;;;;6.05;4.88;;;5.30;99.90;;;;;;4931718;29;20258;-67
2022/02/03 06:48:54;;;;;;;5.03;4.47;;;5.40;99.90;;;;;;4917022;29;20220;-67
2022/02/03 06:51:29;;;;;;;5.28;4.78;;;5.40;99.90;;;;;;4929808;29;20226;-66
2022/02/03 06:54:02;;;;;;;4.55;4.25;;;5.40;99.90;;;;;;4927935;29;20222;-67
2022/02/03 06:56:37;;;;;;;6.65;4.75;;;5.40;99.90;;;;;;4934686;29;20666;-66
2022/02/03 06:59:08;;;;;;;4.15;3.85;;;5.40;99.90;;;;;;4935550;29;20209;-66
2022/02/03 07:01:38;;;;;;;4.38;3.95;;;5.40;99.90;;;;;;4928211;29;20317;-66
2022/02/03 07:04:14;;;;;;;4.35;3.95;;;5.40;99.90;;;;;;4923106;29;20693;-67
2022/02/03 07:06:41;;;;;;;5.07;4.65;;;5.40;99.90;;;;;;4926931;29;20205;-66
2022/02/03 07:09:09;;;;;;;4.97;4.57;;;5.40;99.90;;;;;;4934345;29;20229;-67
2022/02/03 07:11:39;;;;;;;4.18;3.88;;;5.40;99.90;;;;;;4925048;29;20241;-67
2022/02/03 07:14:08;;;;;;;5.75;4.75;;;5.40;99.90;;;;;;4917099;29;20274;-67
2022/02/03 07:16:42;;;;;;;4.57;3.85;;;5.40;99.90;;;;;;4925221;29;20210;-67
2022/02/03 07:19:09;;;;;;;4.90;4.47;;;5.40;99.90;;;;;;4933398;29;20205;-66
2022/02/03 07:21:36;;;;;;;5.40;5.10;;;5.40;99.90;;;;;;4926995;29;20595;-66
2022/02/03 07:24:02;;;;;;;5.50;4.68;;;5.50;99.90;;;;;;4916298;29;20265;-66
2022/02/03 07:26:29;;;;;;;6.40;4.60;;;5.50;99.90;;;;;;4919410;29;20206;-64
2022/02/03 07:28:57;;;;;;;5.10;4.68;;;5.50;99.90;;;;;;4916636;29;20207;-65
2022/02/03 07:31:24;;;;;;;4.82;4.43;;;5.50;99.90;;;;;;4923533;29;20233;-65
2022/02/03 07:33:50;;;;;;;5.63;5.00;;;5.50;99.90;;;;;;4933038;29;20280;-66
2022/02/03 07:36:17;;;;;;;4.03;3.83;;;5.50;99.90;;;;;;4921560;29;20210;-65
2022/02/03 07:38:44;;;;;;;4.70;4.28;;;5.50;99.90;;;;;;4929693;29;20214;-65
2022/02/03 07:41:10;;;;;;;5.63;5.18;;;5.50;99.90;;;;;;4926933;29;20479;-65
2022/02/03 07:43:37;;;;;;;5.80;5.20;;;5.50;99.90;;;;;;4931628;29;20198;-65
2022/02/03 07:46:05;;;;;;;4.32;4.03;;;5.50;99.90;;;;;;4928765;29;20304;-66
2022/02/03 07:48:31;;;;;;;7.00;5.45;;;5.60;99.90;;;;;;4933697;29;20206;-66
2022/02/03 07:50:58;;;;;;;5.80;4.25;;;5.60;99.90;;;;;;4928815;29;20363;-66
2022/02/03 07:53:25;;;;;;;4.28;3.88;;;5.60;99.90;;;;;;4923027;29;20245;-67
2022/02/03 07:55:51;;;;;;;4.10;3.50;;;5.70;99.90;;;;;;4926556;29;20258;-66
2022/02/03 07:58:18;;;;;;;5.10;4.65;;;5.70;99.90;;;;;;4928203;29;20663;-66
2022/02/03 08:00:45;;;;;;;5.93;5.28;;;5.70;99.90;;;;;;4917290;29;20241;-66
2022/02/03 08:03:14;;;;;;;5.57;5.10;;;5.70;99.90;;;;;;4924685;29;20574;-66
2022/02/03 08:05:44;;;;;;;6.05;4.97;;;5.70;99.90;;;;;;4933773;29;20226;-67
2022/02/03 08:08:19;;;;;;;5.93;4.57;;;5.70;99.90;;;;;;4927961;29;20684;-66
2022/02/03 08:10:49;;;;;;;7.07;5.28;;;5.70;99.90;;;;;;4932219;29;22055;-67
2022/02/03 08:13:20;;;;;;;7.13;4.22;;;5.80;99.90;;;;;;4927445;29;20357;-66
2022/02/03 08:15:50;;;;;;;5.57;4.95;;;5.80;99.90;;;;;;4922951;29;20579;-65
2022/02/03 08:18:20;;;;;;;7.65;5.85;;;5.80;99.90;;;;;;4925951;29;20203;-66
2022/02/03 08:20:52;;;;;;;8.25;4.88;;;5.80;99.90;;;;;;4927260;29;20313;-66
2022/02/03 08:23:52;;;;;;;7.97;5.45;;;5.90;99.90;;;;;;4930738;29;20714;-65
2022/02/03 08:26:28;;;;;;;9.02;5.80;;;5.90;99.90;;;;;;4927161;29;20317;-65
2022/02/03 08:29:14;;;;;;;5.90;5.30;;;5.90;99.90;;;;;;4918400;29;20206;-65
2022/02/03 08:31:49;;;;;;;10.25;6.50;;;6.00;99.90;;;;;;4918410;29;20629;-66
2022/02/03 08:34:25;;;;;;;11.07;7.22;;;6.00;99.90;;;;;;4918928;29;20193;-66
2022/02/03 08:36:52;;;;;;;8.82;5.85;;;6.10;99.90;;;;;;4922885;29;20209;-66
2022/02/03 08:39:20;;;;;;;11.23;7.72;;;6.10;99.90;;;;;;4928551;29;20202;-66
2022/02/03 08:41:47;;;;;;;13.32;7.18;;;6.20;99.90;;;;;;4921394;29;20226;-67
2022/02/03 08:44:14;;;;;;;12.25;7.30;;;6.20;99.90;;;;;;4929476;29;20315;-66
2022/02/03 08:46:40;;;;;;;12.50;7.78;;;6.30;99.90;;;;;;4925070;29;20255;-66
2022/02/03 08:49:07;;;;;;;15.15;8.27;;;6.30;99.90;;;;;;4917872;29;20234;-67
2022/02/03 08:51:35;;;;;;;16.15;9.05;;;6.40;99.90;;;;;;4924961;29;20296;-66
2022/02/03 08:54:08;;;;;;;16.60;8.95;;;6.40;99.90;;;;;;4918520;29;20819;-66
2022/02/03 08:56:43;;;;;;;12.68;8.20;;;6.50;99.90;;;;;;4914207;29;20214;-65
2022/02/03 08:59:39;;;;;;;14.43;8.27;;;6.50;99.90;;;;;;4914600;29;20629;-65
2022/02/03 09:38:21;;;;;;;9.95;7.93;;;7.30;99.90;;;;;;4901841;29;20270;-67
2022/02/03 09:57:43;;;;;;;9.65;6.47;;;7.50;99.90;;;;;;4933047;29;20228;-65
2022/02/03 10:00:33;;;;;;;11.27;7.03;;;7.60;99.90;;;;;;4930464;29;20218;-66
2022/02/03 10:03:02;;;;;;;13.07;7.60;;;7.60;99.90;;;;;;4913972;29;20229;-66
2022/02/03 10:05:35;;;;;;;11.73;6.88;;;7.70;99.90;;;;;;4914151;29;20554;-66
2022/02/03 10:08:02;;;;;;;11.93;7.40;;;7.70;99.90;;;;;;4925196;29;20214;-66
2022/02/03 10:10:29;;;;;;;11.98;7.45;;;7.70;99.90;;;;;;4928105;29;20217;-65
2022/02/03 10:12:58;;;;;;;9.25;6.90;;;7.70;99.90;;;;;;4914355;29;20700;-66
2022/02/03 10:15:25;;;;;;;7.22;6.53;;;7.70;99.90;;;;;;4917571;29;20658;-66
2022/02/03 10:17:56;;;;;;;12.30;7.43;;;7.70;99.90;;;;;;4917686;29;20210;-67
2022/02/03 10:20:28;;;;;;;9.70;6.65;;;7.80;99.90;;;;;;4919832;29;20663;-66
2022/02/03 10:22:58;;;;;;;12.90;8.00;;;7.80;99.90;;;;;;4936195;29;20210;-65
2022/02/03 10:25:28;;;;;;;9.43;7.50;;;7.80;99.90;;;;;;4936472;29;20216;-66
2022/02/03 10:28:01;;;;;;;10.80;7.40;;;7.80;99.90;;;;;;4934901;29;20245;-66
2022/02/03 10:30:35;;;;;;;11.40;7.70;;;7.80;99.90;;;;;;4920348;29;20210;-66
2022/02/03 10:33:02;;;;;;;8.85;6.38;;;7.80;99.90;;;;;;4936091;29;20225;-66
2022/02/03 10:35:35;;;;;;;10.30;6.85;;;7.80;99.90;;;;;;4936234;29;20216;-66
2022/02/03 10:38:36;;;;;;;10.07;6.38;;;7.80;99.90;;;;;;4922387;29;20210;-66
2022/02/03 10:50:00;;;;;;;10.55;7.45;;;8.00;99.90;;;;;;4919134;29;20206;-63
2022/02/03 10:55:29;;;;;;;17.35;8.95;;;8.10;99.90;;;;;;4921175;29;20206;-66
2022/02/03 11:03:31;;;;;;;22.88;11.70;;;8.10;99.90;;;;;;4919970;29;20206;-65
2022/02/03 11:06:19;;;;;;;26.65;11.35;;;8.20;99.90;;;;;;4929168;29;20217;-66
2022/02/03 11:08:55;;;;;;;26.15;13.10;;;8.20;99.90;;;;;;4933043;29;20221;-65
2022/02/03 11:11:33;;;;;;;22.27;12.43;;;8.20;99.90;;;;;;4934547;29;20253;-65
2022/02/03 11:14:01;;;;;;;32.28;14.77;;;8.20;99.90;;;;;;4934767;29;20237;-66
2022/02/03 11:16:32;;;;;;;34.97;14.50;;;8.20;99.90;;;;;;4932276;29;20215;-66
2022/02/03 11:19:02;;;;;;;29.63;13.18;;;8.30;99.90;;;;;;4924570;29;20232;-66
2022/02/03 11:21:29;;;;;;;40.80;15.10;;;8.20;99.90;;;;;;4921692;29;20530;-66
2022/02/03 11:24:02;;;;;;;32.17;15.43;;;8.30;99.90;;;;;;4921677;29;20202;-66
2022/02/03 11:26:38;;;;;;;32.85;15.13;;;8.30;99.90;;;;;;4934665;29;20701;-66
2022/02/03 11:29:49;;;;;;;30.52;15.98;;;8.30;99.90;;;;;;4934169;29;20301;-66
2022/02/03 11:32:31;;;;;;;28.55;15.85;;;8.30;99.90;;;;;;4924787;29;20591;-66
2022/02/03 11:38:10;;;;;;;30.20;14.38;;;8.30;99.90;;;;;;4925679;29;20213;-66
2022/02/03 11:41:12;;;;;;;28.23;14.85;;;8.30;99.90;;;;;;4916962;29;20336;-64
2022/02/03 11:44:20;;;;;;;31.17;14.23;;;8.30;99.90;;;;;;4919806;29;20573;-65
2022/02/03 11:47:11;;;;;;;27.27;15.27;;;8.30;99.90;;;;;;4918346;29;20713;-65
2022/02/03 11:50:10;;;;;;;30.50;14.65;;;8.30;99.90;;;;;;4923385;29;20257;-66
2022/02/03 11:53:13;;;;;;;28.05;14.38;;;8.30;99.90;;;;;;4922132;29;20634;-66
2022/02/03 11:56:15;;;;;;;27.42;13.02;;;8.40;99.90;;;;;;4919233;29;20209;-67
2022/02/03 12:01:55;;;;;;;29.85;12.80;;;8.40;99.90;;;;;;4926540;29;20651;-66
2022/02/03 12:05:00;;;;;;;26.40;14.20;;;8.40;99.90;;;;;;4925815;29;20290;-66
2022/02/03 12:10:46;;;;;;;23.77;13.18;;;8.40;99.90;;;;;;4915290;29;21001;-66
2022/02/03 12:13:46;;;;;;;26.00;12.45;;;8.40;99.90;;;;;;4915315;29;20703;-67
2022/02/03 12:16:25;;;;;;;23.30;11.35;;;8.40;99.90;;;;;;4925343;29;20202;-66
2022/02/03 12:19:10;;;;;;;20.02;10.48;;;8.40;99.90;;;;;;4930008;29;20683;-67
2022/02/03 12:21:43;;;;;;;20.20;10.95;;;8.30;99.90;;;;;;4916598;29;20230;-66
2022/02/03 12:24:20;;;;;;;23.40;10.20;;;8.30;99.90;;;;;;4922715;29;20206;-67
2022/02/03 12:26:53;;;;;;;18.88;9.52;;;8.40;99.90;;;;;;4932587;29;20202;-67
2022/02/03 12:29:28;;;;;;;15.50;8.82;;;8.40;99.90;;;;;;4920875;29;20730;-65
2022/02/03 12:32:04;;;;;;;18.17;9.77;;;8.30;99.90;;;;;;4920893;29;20312;-66
2022/02/03 12:37:47;;;;;;;15.32;10.00;;;8.30;99.90;;;;;;4889302;29;20210;-66
2022/02/03 12:40:30;;;;;;;17.02;8.82;;;8.30;99.90;;;;;;4918027;29;20198;-66
2022/02/03 12:43:13;;;;;;;19.02;9.38;;;8.30;99.90;;;;;;4924182;29;20207;-65
2022/02/03 12:45:39;;;;;;;14.55;7.80;;;8.20;99.90;;;;;;4921291;29;20529;-65
2022/02/03 12:48:07;;;;;;;14.60;8.88;;;8.20;99.90;;;;;;4928517;29;20206;-66
2022/02/03 12:50:35;;;;;;;19.55;10.43;;;8.20;99.90;;;;;;4924672;29;20246;-65
2022/02/03 12:53:04;;;;;;;17.08;9.90;;;8.20;99.90;;;;;;4923384;29;20305;-65
2022/02/03 12:55:34;;;;;;;22.55;8.27;;;8.10;99.90;;;;;;4923719;29;20222;-66
2022/02/03 12:58:04;;;;;;;19.10;10.43;;;8.10;99.90;;;;;;4923824;29;20213;-65
2022/02/03 13:00:41;;;;;;;15.23;9.90;;;8.00;99.90;;;;;;4931864;29;20209;-66
2022/02/03 13:03:11;;;;;;;14.65;8.15;;;8.00;99.90;;;;;;4931349;29;20285;-66
2022/02/03 13:05:40;;;;;;;13.88;8.23;;;8.00;99.90;;;;;;4930612;29;20273;-66
2022/02/03 13:08:09;;;;;;;21.20;10.27;;;8.00;99.90;;;;;;4925489;29;20210;-66
2022/02/03 13:10:38;;;;;;;15.95;9.63;;;7.90;99.90;;;;;;4923994;29;20525;-66
2022/02/03 13:13:19;;;;;;;13.50;8.50;;;7.90;99.90;;;;;;4918016;29;20289;-66
2022/02/03 13:15:46;;;;;;;17.30;9.48;;;7.90;99.90;;;;;;4927221;29;20624;-67
2022/02/03 13:18:19;;;;;;;17.60;9.20;;;7.90;99.90;;;;;;4932375;29;20586;-66
2022/02/03 13:20:54;;;;;;;19.52;11.02;;;8.00;99.90;;;;;;4920223;29;20237;-67
2022/02/03 13:23:25;;;;;;;21.27;11.88;;;8.00;99.90;;;;;;4916618;29;20214;-66
2022/02/03 13:26:01;;;;;;;17.17;11.13;;;8.00;99.90;;;;;;4914808;29;20237;-67
2022/02/03 13:28:38;;;;;;;16.60;9.50;;;8.00;99.90;;;;;;4917274;29;20694;-66
2022/02/03 13:31:29;;;;;;;18.05;8.57;;;8.00;99.90;;;;;;4911297;29;20238;-65
2022/02/03 13:34:07;;;;;;;14.23;9.70;;;8.10;99.90;;;;;;4912145;29;20269;-65
2022/02/03 13:36:40;;;;;;;14.45;7.25;;;8.10;99.90;;;;;;4915248;29;20202;-65
2022/02/03 13:39:11;;;;;;;11.45;7.65;;;8.10;99.90;;;;;;4920059;29;20286;-65
2022/02/03 13:41:42;;;;;;;14.60;8.77;;;8.10;99.90;;;;;;4918321;29;20249;-65
2022/02/03 13:44:11;;;;;;;10.70;7.68;;;8.10;99.90;;;;;;4924886;29;20667;-66
2022/02/03 13:46:39;;;;;;;10.23;8.38;;;8.10;99.90;;;;;;4928607;29;20214;-66
2022/02/03 13:49:14;;;;;;;13.32;8.43;;;8.20;99.90;;;;;;4921988;29;20211;-65
2022/02/03 13:51:42;;;;;;;10.32;8.02;;;8.20;99.90;;;;;;4929430;29;20251;-66
2022/02/03 13:54:20;;;;;;;15.73;8.88;;;8.20;99.90;;;;;;4930486;29;20365;-65
2022/02/03 14:14:25;;;;;;;10.98;7.28;;;8.10;99.90;;;;;;4869797;29;20224;-67
2022/02/03 14:22:53;;;;;;;9.75;8.02;;;8.10;99.90;;;;;;4854045;29;20219;-66
2022/02/03 14:28:00;;;;;;;9.95;6.60;;;8.10;99.90;;;;;;4919434;29;20217;-66
2022/02/03 14:30:28;;;;;;;12.80;6.70;;;8.10;99.90;;;;;;4928142;29;20210;-66
2022/02/03 14:32:58;;;;;;;10.82;7.15;;;8.00;99.90;;;;;;4935505;29;20209;-66
2022/02/03 14:35:25;;;;;;;11.07;6.57;;;8.00;99.90;;;;;;4918080;29;20249;-66
2022/02/03 14:38:02;;;;;;;10.35;7.43;;;8.00;99.90;;;;;;4917281;29;20533;-67
2022/02/03 14:40:38;;;;;;;10.70;6.70;;;8.00;99.90;;;;;;4928582;29;20209;-66
2022/02/03 14:43:06;;;;;;;14.32;7.55;;;8.10;99.90;;;;;;4931223;29;20253;-66
2022/02/03 14:45:35;;;;;;;19.25;6.93;;;8.00;99.90;;;;;;4916770;29;20585;-66
2022/02/03 14:48:02;;;;;;;14.52;8.10;;;8.00;99.90;;;;;;4927025;29;20228;-66
2022/02/03 14:50:29;;;;;;;11.02;6.40;;;8.00;99.90;;;;;;4930326;29;20224;-66
2022/02/03 14:53:00;;;;;;;9.38;7.45;;;8.00;99.90;;;;;;4934623;29;20511;-66
2022/02/03 14:58:20;;;;;;;8.38;7.50;;;8.00;99.90;;;;;;4920451;29;20210;-65
2022/02/03 15:00:49;;;;;;;9.70;5.90;;;8.00;99.90;;;;;;4916322;29;20782;-66
2022/02/03 15:03:17;;;;;;;11.85;7.28;;;8.00;99.90;;;;;;4931234;29;20757;-65
2022/02/03 15:05:44;;;;;;;9.25;6.50;;;8.00;99.90;;;;;;4923614;29;20556;-66
2022/02/03 15:08:18;;;;;;;12.48;7.75;;;7.90;99.90;;;;;;4916054;29;20210;-66
2022/02/03 15:10:50;;;;;;;11.25;7.20;;;7.90;99.90;;;;;;4924249;29;20316;-65
2022/02/03 15:13:31;;;;;;;12.43;8.07;;;7.90;99.90;;;;;;4927827;29;20261;-66
2022/02/03 15:16:00;;;;;;;10.45;7.55;;;7.90;99.90;;;;;;4924249;29;20206;-66
2022/02/03 15:18:26;;;;;;;11.82;8.10;;;7.90;99.90;;;;;;4933249;29;20238;-65
2022/02/03 15:20:53;;;;;;;16.75;8.63;;;7.90;99.90;;;;;;4915985;29;20231;-66
2022/02/03 15:23:20;;;;;;;11.05;7.85;;;7.90;99.90;;;;;;4915978;29;20210;-67
2022/02/03 15:25:46;;;;;;;11.73;8.32;;;7.90;99.90;;;;;;4917883;29;20262;-67
2022/02/03 15:28:13;;;;;;;11.05;7.70;;;7.90;99.90;;;;;;4930998;29;20574;-67
2022/02/03 15:30:40;;;;;;;8.50;5.68;;;7.80;99.90;;;;;;4924967;29;20275;-67
2022/02/03 15:33:08;;;;;;;12.70;6.65;;;7.80;99.90;;;;;;4932110;29;20501;-67
2022/02/03 15:35:38;;;;;;;10.35;7.05;;;7.80;99.90;;;;;;4932105;29;20241;-66
2022/02/03 15:38:09;;;;;;;12.32;6.88;;;7.80;99.90;;;;;;4933896;29;20297;-67
2022/02/03 15:40:37;;;;;;;12.20;6.70;;;7.80;99.90;;;;;;4915511;29;20317;-67
2022/02/03 15:43:07;;;;;;;7.05;5.00;;;7.80;99.90;;;;;;4934624;29;20306;-67
2022/02/03 15:45:38;;;;;;;7.63;5.97;;;7.80;99.90;;;;;;4934031;29;20206;-67
2022/02/03 15:48:14;;;;;;;7.63;6.80;;;7.80;99.90;;;;;;4934734;29;20209;-68
2022/02/03 15:51:05;;;;;;;10.60;6.78;;;7.80;99.90;;;;;;4916649;29;20242;-68
2022/02/03 15:56:30;;;;;;;7.53;6.53;;;7.80;99.90;;;;;;4915874;29;20205;-67
2022/02/03 16:18:09;;;;;;;9.57;7.20;;;7.70;99.90;;;;;;4932630;29;20265;-68
2022/02/03 16:20:45;;;;;;;11.90;7.95;;;7.60;99.90;;;;;;4933594;29;20225;-66
2022/02/03 16:23:33;;;;;;;8.43;6.95;;;7.70;99.90;;;;;;4926019;29;20228;-64
2022/02/03 16:51:11;;;;;;;10.70;8.10;;;7.60;99.90;;;;;;4933314;29;20326;-67
2022/02/03 16:53:37;;;;;;;10.25;7.88;;;7.60;99.90;;;;;;4932069;29;20234;-68
2022/02/03 16:56:08;;;;;;;8.90;7.30;;;7.60;99.90;;;;;;4921746;29;20756;-67
2022/02/03 16:58:36;;;;;;;13.73;8.25;;;7.60;99.90;;;;;;4929027;29;20308;-69
2022/02/03 17:01:03;;;;;;;10.30;7.78;;;7.60;99.90;;;;;;4925633;29;20596;-68
2022/02/03 17:03:30;;;;;;;10.05;6.82;;;7.60;99.90;;;;;;4917439;29;20253;-67
2022/02/03 17:05:56;;;;;;;10.40;7.78;;;7.60;99.90;;;;;;4929258;29;20667;-68
2022/02/03 17:08:24;;;;;;;9.68;7.80;;;7.60;99.90;;;;;;4923548;29;20213;-67
2022/02/03 17:10:51;;;;;;;10.35;7.80;;;7.60;99.90;;;;;;4932433;29;20569;-68
2022/02/03 17:13:20;;;;;;;11.07;7.95;;;7.60;99.90;;;;;;4933328;29;20222;-68
2022/02/03 17:15:47;;;;;;;16.02;8.73;;;7.50;99.90;;;;;;4928656;29;20242;-67
2022/02/03 17:18:14;;;;;;;8.93;8.02;;;7.50;99.90;;;;;;4929665;29;20307;-67
2022/02/03 17:20:42;;;;;;;9.68;7.88;;;7.50;99.90;;;;;;4919279;29;20222;-68
2022/02/03 17:23:13;;;;;;;10.98;8.68;;;7.50;99.90;;;;;;4922716;29;20317;-68
2022/02/03 17:25:47;;;;;;;10.10;7.93;;;7.50;99.90;;;;;;4930272;29;20198;-67
2022/02/03 17:28:19;;;;;;;13.25;9.25;;;7.40;99.90;;;;;;4915038;29;20302;-68
2022/02/03 17:30:52;;;;;;;12.55;8.10;;;7.40;99.90;;;;;;4917142;29;20225;-67
2022/02/03 18:03:01;;;;;;;31.75;16.95;;;7.30;99.90;;;;;;4915135;29;20629;-68
2022/02/03 18:04:28;;;;;;;19.13;12.65;;;7.30;99.90;;;;;;4915386;29;20221;-68
2022/02/03 18:09:42;;;;;;;22.45;12.75;;;7.40;99.90;;;;;;4916864;29;20651;-69
2022/02/03 18:18:15;;;;;;;15.15;10.63;;;7.30;99.90;;;;;;4927299;29;20663;-68
2022/02/03 18:37:28;;;;;;;13.38;9.68;;;7.30;99.90;;;;;;4923305;29;20301;-67
2022/02/03 18:50:58;;;;;;;14.63;10.85;;;7.30;99.90;;;;;;4931976;29;20247;-66
2022/02/03 18:53:36;;;;;;;16.45;11.00;;;7.30;99.90;;;;;;4918484;29;20206;-67
2022/02/03 18:56:10;;;;;;;17.58;10.48;;;7.20;99.90;;;;;;4920551;29;20233;-67
2022/02/03 18:58:44;;;;;;;20.42;10.75;;;7.20;99.90;;;;;;4933064;29;20670;-68
2022/02/03 19:09:50;;;;;;;14.57;10.70;;;7.20;99.90;;;;;;4920981;29;20244;-67
2022/02/03 19:13:18;;;;;;;19.15;11.55;;;7.20;99.90;;;;;;4931252;29;20241;-68
2022/02/03 19:21:13;;;;;;;14.77;10.20;;;7.20;99.90;;;;;;4925946;29;20940;-67
2022/02/03 19:24:11;;;;;;;18.38;11.38;;;7.20;99.90;;;;;;4921165;29;20249;-66
2022/02/03 19:26:59;;;;;;;19.92;12.20;;;7.20;99.90;;;;;;4931784;29;20248;-66
2022/02/03 19:57:46;;;;;;;22.73;12.70;;;7.10;99.90;;;;;;4913588;29;20217;-67
2022/02/03 20:03:33;;;;;;;26.48;16.55;;;7.10;99.90;;;;;;4906645;29;20781;-67
2022/02/03 20:06:11;;;;;;;17.38;12.38;;;7.10;99.90;;;;;;4920677;29;20709;-66
2022/02/03 20:08:43;;;;;;;22.73;14.20;;;7.10;99.90;;;;;;4928588;29;20217;-66
2022/02/03 20:11:11;;;;;;;19.05;11.95;;;7.10;99.90;;;;;;4917394;29;20231;-67
2022/02/03 20:13:37;;;;;;;23.73;12.48;;;7.10;99.90;;;;;;4924203;29;20574;-66
2022/02/03 20:16:07;;;;;;;20.65;12.25;;;7.10;99.90;;;;;;4931363;29;20309;-67
2022/02/03 20:18:34;;;;;;;20.23;13.30;;;7.10;99.90;;;;;;4932887;29;20210;-68
2022/02/03 20:21:00;;;;;;;41.33;23.65;;;7.10;99.90;;;;;;4929046;29;20257;-67
2022/02/03 20:23:27;;;;;;;29.77;17.70;;;7.10;99.90;;;;;;4932634;29;20683;-67
2022/02/03 20:25:57;;;;;;;39.13;21.73;;;7.10;99.90;;;;;;4933695;29;20670;-67
2022/02/03 20:28:24;;;;;;;23.20;13.90;;;7.10;99.90;;;;;;4934022;29;20575;-66
2022/02/03 20:30:51;;;;;;;22.38;14.65;;;7.10;99.90;;;;;;4928473;29;20316;-67
2022/02/03 20:33:19;;;;;;;23.17;14.65;;;7.10;99.90;;;;;;4933937;29;20234;-67
2022/02/03 20:35:46;;;;;;;26.25;14.52;;;7.10;99.90;;;;;;4926549;29;20222;-67
2022/02/03 20:38:14;;;;;;;20.42;13.00;;;7.10;99.90;;;;;;4933367;29;20244;-67
2022/02/03 20:40:41;;;;;;;23.17;14.30;;;7.10;99.90;;;;;;4920288;29;20308;-67
2022/02/03 20:43:08;;;;;;;27.40;14.52;;;7.10;99.90;;;;;;4919380;29;20604;-66
2022/02/03 20:45:35;;;;;;;25.88;17.40;;;7.10;99.90;;;;;;4917322;29;20206;-67
2022/02/03 20:48:02;;;;;;;29.60;16.13;;;7.10;99.90;;;;;;4919270;29;20281;-68
2022/02/03 20:50:30;;;;;;;22.77;15.35;;;7.10;99.90;;;;;;4928987;29;20648;-67
2022/02/03 20:52:57;;;;;;;30.77;16.50;;;7.10;99.90;;;;;;4919107;29;20206;-68
2022/02/03 20:55:23;;;;;;;26.17;15.95;;;7.10;99.90;;;;;;4933351;29;20221;-67
2022/02/03 20:57:50;;;;;;;28.38;16.40;;;7.10;99.90;;;;;;4930837;29;20210;-67
2022/02/03 21:00:22;;;;;;;22.90;14.18;;;7.00;99.90;;;;;;4914777;29;20211;-67
2022/02/03 21:02:55;;;;;;;27.15;15.60;;;7.00;99.90;;;;;;4927235;29;20199;-67
2022/02/03 21:05:22;;;;;;;27.55;16.25;;;7.00;99.90;;;;;;4915386;29;20356;-67
2022/02/03 21:07:51;;;;;;;23.58;14.50;;;7.00;99.90;;;;;;4922038;29;20282;-67
2022/02/03 21:10:24;;;;;;;26.65;15.20;;;7.00;99.90;;;;;;4913868;29;20251;-68
2022/02/03 21:12:52;;;;;;;24.45;14.75;;;7.00;99.90;;;;;;4932992;29;20209;-67
2022/02/03 21:15:24;;;;;;;31.70;15.75;;;7.00;99.90;;;;;;4929609;29;20219;-66
2022/02/03 21:17:51;;;;;;;26.95;16.05;;;7.10;99.90;;;;;;4915031;29;20214;-66
2022/02/03 21:20:20;;;;;;;25.63;15.60;;;7.00;99.90;;;;;;4916038;29;20222;-66
2022/02/03 21:22:47;;;;;;;27.05;15.88;;;7.00;99.90;;;;;;4933615;29;20281;-67
2022/02/03 21:25:19;;;;;;;26.27;15.70;;;7.00;99.90;;;;;;4931959;29;20206;-66
2022/02/03 21:27:48;;;;;;;27.95;14.68;;;7.00;99.90;;;;;;4932815;29;20291;-66
2022/02/03 21:30:17;;;;;;;26.50;15.27;;;7.00;99.90;;;;;;4929273;29;20205;-67
2022/02/03 21:32:44;;;;;;;30.88;16.05;;;7.00;99.90;;;;;;4932913;29;20217;-67
2022/02/03 21:35:11;;;;;;;26.70;14.60;;;7.00;99.90;;;;;;4916068;29;20286;-67
2022/02/03 21:37:38;;;;;;;27.75;15.88;;;7.00;99.90;;;;;;4933470;29;20221;-67
2022/02/03 21:40:07;;;;;;;25.27;16.90;;;7.00;99.90;;;;;;4915498;29;20262;-67
2022/02/03 21:42:35;;;;;;;33.05;17.52;;;7.00;99.90;;;;;;4914428;29;20233;-67
2022/02/03 21:45:02;;;;;;;31.63;16.83;;;7.00;99.90;;;;;;4923150;29;20210;-67
2022/02/03 21:47:29;;;;;;;26.52;16.35;;;7.00;99.90;;;;;;4927933;29;20257;-67
2022/02/03 21:49:58;;;;;;;25.35;16.48;;;7.00;99.90;;;;;;4931861;29;20265;-67
2022/02/03 21:52:32;;;;;;;30.92;16.08;;;7.00;99.90;;;;;;4932359;29;20269;-67
2022/02/03 21:55:00;;;;;;;28.40;17.27;;;7.00;99.90;;;;;;4931669;29;20213;-67
2022/02/03 21:57:27;;;;;;;33.28;16.55;;;7.00;99.90;;;;;;4932528;29;20212;-67
2022/02/03 21:59:55;;;;;;;27.20;17.13;;;6.90;99.90;;;;;;4923712;29;20586;-67
